Time;durP1;ratioP1;P1;durP2;ratioP2;P2;SDS_P1;SDS_P2;PMS_P1;PMS_P2;Temp;Humidity;BMP_temperature;BMP_pressure;BME280_temperature;BME280_humidity;BME280_pressure;Samples;Min_cycle;Max_cycle;Signal;HPM_P1;HPM_P2
2021/11/20 00:00:28;;;;;;;;;3.50;3.00;;;;;15.83;56.33;98898.75;4907545;28;102462;-70
2021/11/20 00:02:55;;;;;;;;;2.00;2.00;;;;;15.82;56.33;98897.91;4890836;28;108723;-69
2021/11/20 00:05:26;;;;;;;;;2.00;2.00;;;;;15.80;56.15;98905.50;4896979;28;105265;-69
2021/11/20 00:07:53;;;;;;;;;2.50;2.00;;;;;15.80;56.71;98894.59;4902362;28;102356;-69
2021/11/20 00:10:22;;;;;;;;;2.25;2.25;;;;;15.80;56.59;98894.59;4910333;28;102577;-70
2021/11/20 00:12:49;;;;;;;;;3.00;2.25;;;;;15.81;56.14;98900.88;4888557;28;110221;-70
2021/11/20 00:15:19;;;;;;;;;2.00;2.00;;;;;15.81;56.28;98884.50;4900346;28;107719;-70
2021/11/20 00:17:46;;;;;;;;;3.00;1.25;;;;;15.80;56.19;98882.88;4886102;28;102404;-70
2021/11/20 00:20:14;;;;;;;;;2.25;2.25;;;;;15.80;56.19;98877.41;4793520;28;102430;-70
2021/11/20 00:22:42;;;;;;;;;2.00;2.00;;;;;15.80;56.50;98883.69;4814553;28;104056;-70
2021/11/20 00:25:20;;;;;;;;;1.00;1.00;;;;;15.81;56.24;98879.06;4904529;28;102275;-69
2021/11/20 00:27:48;;;;;;;;;2.00;2.00;;;;;15.81;56.42;98879.06;4890387;28;104686;-70
2021/11/20 00:32:46;;;;;;;;;2.50;2.00;;;;;15.80;56.42;98877.41;4905670;28;104172;-69
2021/11/20 00:35:17;;;;;;;;;2.00;2.00;;;;;15.80;56.61;98877.41;4903869;28;102711;-69
2021/11/20 00:37:44;;;;;;;;;2.50;2.00;;;;;15.80;56.26;98875.53;4906339;28;104926;-70
2021/11/20 00:40:19;;;;;;;;;3.00;2.00;;;;;15.80;56.77;98878.25;4900215;28;102434;-70
2021/11/20 00:42:46;;;;;;;;;2.00;2.00;;;;;15.79;56.36;98882.03;4907906;28;104118;-70
2021/11/20 00:45:13;;;;;;;;;2.75;2.00;;;;;15.78;56.91;98880.34;4877332;28;102446;-70
2021/11/20 00:47:40;;;;;;;;;2.00;2.00;;;;;15.78;56.34;98883.06;4893063;28;103640;-69
2021/11/20 00:50:07;;;;;;;;;3.00;3.00;;;;;15.77;56.84;98878.69;4900234;28;103165;-69
2021/11/20 00:52:34;;;;;;;;;2.00;2.00;;;;;15.76;57.23;98874.28;4909348;28;104060;-70
2021/11/20 00:55:02;;;;;;;;;2.00;2.00;;;;;15.75;57.09;98869.91;4895836;28;102501;-70
2021/11/20 00:57:29;;;;;;;;;2.00;1.33;;;;;15.75;56.64;98863.63;4902626;28;102445;-69
2021/11/20 00:59:58;;;;;;;;;2.00;2.00;;;;;15.76;56.68;98868.03;4907020;28;102476;-70
2021/11/20 01:02:25;;;;;;;;;1.00;1.00;;;;;15.74;56.55;98868.25;4881990;28;108926;-70
2021/11/20 01:04:52;;;;;;;;;2.00;1.75;;;;;15.75;56.70;98869.91;4818706;28;103954;-70
2021/11/20 01:07:19;;;;;;;;;2.00;2.00;;;;;15.76;57.01;98865.28;4830726;28;104320;-68
2021/11/20 01:09:46;;;;;;;;;3.00;1.25;;;;;15.75;56.75;98875.38;4873347;28;102930;-70
2021/11/20 01:12:19;;;;;;;;;2.00;2.00;;;;;15.75;56.48;98864.47;4915041;28;104093;-70
2021/11/20 01:14:46;;;;;;;;;3.00;2.00;;;;;15.75;56.36;98853.56;4903753;28;102606;-70
2021/11/20 01:17:13;;;;;;;;;2.00;2.00;;;;;15.77;56.88;98859.59;4913008;28;102498;-70
2021/11/20 01:19:41;;;;;;;;;2.00;1.00;;;;;15.76;56.92;98848.94;4882097;28;102207;-70
2021/11/20 01:22:12;;;;;;;;;2.00;1.25;;;;;15.76;56.29;98843.47;4893856;28;104087;-69
2021/11/20 01:24:39;;;;;;;;;3.25;1.75;;;;;15.74;56.60;98840.97;4892692;28;103559;-69
2021/11/20 01:27:06;;;;;;;;;3.00;2.00;;;;;15.74;57.10;98838.25;4895617;28;102188;-69
2021/11/20 01:29:33;;;;;;;;;2.00;2.00;;;;;15.74;56.59;98835.53;4905679;28;104894;-69
2021/11/20 01:32:01;;;;;;;;;1.50;1.50;;;;;15.74;56.59;98830.06;4865516;28;104215;-70
2021/11/20 01:34:28;;;;;;;;;2.00;2.00;;;;;15.74;56.62;98846.44;4884588;28;102437;-70
2021/11/20 01:36:57;;;;;;;;;1.25;1.25;;;;;15.72;56.46;98832.19;4879885;28;102611;-70
2021/11/20 01:39:28;;;;;;;;;2.00;2.00;;;;;15.73;56.83;98833.84;4885240;28;103013;-70
2021/11/20 01:41:59;;;;;;;;;2.25;2.00;;;;;15.72;56.77;98834.06;4885487;28;104215;-70
2021/11/20 01:44:35;;;;;;;;;3.00;2.00;;;;;15.71;56.16;98838.72;4902954;28;102487;-70
2021/11/20 01:47:17;;;;;;;;;2.75;2.75;;;;;15.71;56.47;98840.59;4871150;28;102120;-70
2021/11/20 01:49:52;;;;;;;;;2.00;2.00;;;;;15.71;56.86;98841.44;4875009;28;102516;-70
2021/11/20 01:52:41;;;;;;;;;2.00;2.00;;;;;15.71;56.39;98840.59;4910101;28;104034;-70
2021/11/20 01:55:22;;;;;;;;;2.00;2.00;;;;;15.72;56.38;98834.06;4798702;28;104005;-69
2021/11/20 01:58:00;;;;;;;;;1.50;1.50;;;;;15.71;56.58;98840.59;4881940;28;102206;-70
2021/11/20 02:00:59;;;;;;;;;2.00;2.00;;;;;15.71;56.11;98825.09;4912973;28;102678;-70
2021/11/20 02:03:53;;;;;;;;;1.00;1.00;;;;;15.71;56.53;98840.59;4881419;28;109037;-69
2021/11/20 02:06:40;;;;;;;;;1.00;1.00;;;;;15.68;56.81;98841.88;4730879;28;109738;-70
2021/11/20 02:09:28;;;;;;;;;2.00;2.00;;;;;15.69;56.36;98838.09;4799775;28;102512;-70
2021/11/20 02:12:03;;;;;;;;;1.00;1.00;;;;;15.70;56.50;98839.78;4806432;28;103368;-70
2021/11/20 02:14:30;;;;;;;;;2.50;2.00;;;;;15.70;56.85;98828.03;4831953;28;104120;-70
2021/11/20 02:17:21;;;;;;;;;1.00;1.00;;;;;15.70;56.26;98830.75;4910639;28;102625;-70
2021/11/20 02:19:54;;;;;;;;;2.00;1.50;;;;;15.71;56.88;98816.91;4866783;28;104150;-70
2021/11/20 02:22:34;;;;;;;;;2.00;1.00;;;;;15.72;56.54;98817.72;4904895;28;102427;-70
2021/11/20 02:25:01;;;;;;;;;1.00;1.00;;;;;15.71;56.44;98806.00;4892439;28;104307;-69
2021/11/20 02:27:31;;;;;;;;;1.67;1.00;;;;;15.73;57.07;98812.03;4905794;28;102684;-70
2021/11/20 02:30:13;;;;;;;;;3.00;1.25;;;;;15.73;56.87;98822.94;4895797;28;102420;-69
2021/11/20 02:32:40;;;;;;;;;1.00;1.00;;;;;15.74;56.19;98819.16;4899126;28;102646;-70
2021/11/20 02:35:07;;;;;;;;;1.00;1.00;;;;;15.75;56.26;98817.28;4901350;28;104071;-70
2021/11/20 02:37:34;;;;;;;;;1.00;1.00;;;;;15.75;56.83;98815.38;4892135;28;103181;-70
2021/11/20 02:40:02;;;;;;;;;1.33;1.33;;;;;15.77;56.92;98815.97;4903688;28;102163;-70
2021/11/20 02:42:29;;;;;;;;;1.25;1.00;;;;;15.77;56.35;98813.25;4900405;28;102298;-70
2021/11/20 02:44:56;;;;;;;;;1.75;1.00;;;;;15.78;56.32;98814.06;4903166;28;104357;-70
2021/11/20 02:47:31;;;;;;;;;1.00;1.00;;;;;15.78;56.25;98809.47;4900110;28;102242;-70
2021/11/20 02:49:58;;;;;;;;;1.67;1.00;;;;;15.79;56.26;98815.75;4893074;28;103417;-68
2021/11/20 02:52:26;;;;;;;;;1.00;1.00;;;;;15.79;56.84;98816.59;4907532;28;102597;-70
2021/11/20 02:54:53;;;;;;;;;2.25;2.00;;;;;15.78;56.21;98817.63;4909381;28;108531;-70
2021/11/20 02:57:24;;;;;;;;;2.50;1.00;;;;;15.79;56.84;98819.31;4904085;28;102768;-70
2021/11/20 02:59:51;;;;;;;;;1.00;1.00;;;;;15.80;56.72;98837.34;4901909;28;102195;-70
2021/11/20 03:02:18;;;;;;;;;1.00;1.00;;;;;15.80;56.71;98840.06;4905020;28;102588;-70
2021/11/20 03:04:45;;;;;;;;;1.75;1.00;;;;;15.82;55.98;98831.63;4907592;28;103871;-70
2021/11/20 03:07:12;;;;;;;;;1.50;1.00;;;;;15.80;56.55;98840.06;4909445;28;103634;-70
2021/11/20 03:09:40;;;;;;;;;1.25;0.25;;;;;15.80;56.58;98829.16;4909795;28;102808;-70
2021/11/20 03:12:09;;;;;;;;;1.00;1.00;;;;;15.79;56.19;98843.84;4914457;28;102321;-70
2021/11/20 03:14:37;;;;;;;;;2.00;2.00;;;;;15.80;56.02;98845.53;4910431;28;104016;-70
2021/11/20 03:17:05;;;;;;;;;1.25;1.25;;;;;15.81;55.93;98843.59;4901220;28;102474;-70
2021/11/20 03:19:38;;;;;;;;;2.00;2.00;;;;;15.80;56.26;98842.78;4904317;28;102608;-70
2021/11/20 03:22:24;;;;;;;;;2.25;1.00;;;;;15.81;55.95;98832.69;4905446;28;102535;-70
2021/11/20 03:24:51;;;;;;;;;1.25;1.00;;;;;15.80;56.09;98826.44;4903589;28;104076;-70
2021/11/20 03:27:18;;;;;;;;;1.25;1.00;;;;;15.80;56.20;98837.34;4910833;28;102270;-70
2021/11/20 03:29:45;;;;;;;;;1.75;1.25;;;;;15.80;55.85;98845.53;4905044;28;102242;-70
2021/11/20 03:32:12;;;;;;;;;2.00;1.00;;;;;15.80;56.16;98841.97;4905478;28;102458;-70
2021/11/20 03:34:40;;;;;;;;;1.75;1.00;;;;;15.80;56.54;98842.78;4905230;28;104079;-70
2021/11/20 03:37:07;;;;;;;;;1.75;1.75;;;;;15.80;56.43;98842.78;4914255;28;102462;-70
2021/11/20 03:39:34;;;;;;;;;2.00;2.00;;;;;15.79;55.75;98843.84;4914800;28;102492;-70
2021/11/20 03:42:01;;;;;;;;;1.25;1.00;;;;;15.80;56.03;98842.78;4911430;28;102282;-70
2021/11/20 03:44:29;;;;;;;;;1.00;1.00;;;;;15.79;55.72;98840.28;4909556;28;104062;-69
2021/11/20 03:46:56;;;;;;;;;1.25;1.00;;;;;15.78;55.66;98858.53;4912610;28;102544;-70
2021/11/20 03:49:23;;;;;;;;;2.00;1.75;;;;;15.78;55.91;98866.72;4908535;28;102580;-70
2021/11/20 03:51:50;;;;;;;;;1.00;1.00;;;;;15.78;56.06;98860.44;4911751;28;102349;-70
2021/11/20 03:54:17;;;;;;;;;2.00;2.00;;;;;15.78;55.88;98861.25;4915302;28;104643;-70
2021/11/20 03:56:44;;;;;;;;;1.00;1.00;;;;;15.78;55.75;98865.88;4907594;28;102369;-70
2021/11/20 03:59:11;;;;;;;;;1.00;1.00;;;;;15.79;55.77;98871.13;4894530;28;102144;-70
2021/11/20 04:01:43;;;;;;;;;0.25;0.25;;;;;15.79;55.92;98878.47;4895827;28;102218;-70
2021/11/20 04:04:10;;;;;;;;;0.00;0.00;;;;;15.78;56.41;98874.91;4903935;28;104297;-70
2021/11/20 04:06:37;;;;;;;;;1.25;1.25;;;;;15.78;55.65;98872.16;4910456;28;102175;-70
2021/11/20 04:09:12;;;;;;;;;1.50;1.00;;;;;15.78;56.20;98877.63;4902680;28;102506;-69
2021/11/20 04:11:39;;;;;;;;;1.00;1.00;;;;;15.78;55.67;98868.59;4895540;28;102763;-70
2021/11/20 04:14:06;;;;;;;;;1.00;1.00;;;;;15.78;55.67;98872.16;4890157;28;104076;-70
2021/11/20 04:16:33;;;;;;;;;1.00;0.00;;;;;15.78;56.16;98863.16;4902933;28;111469;-68
2021/11/20 04:19:00;;;;;;;;;1.00;1.00;;;;;15.77;55.38;98862.31;4899464;28;102687;-70
2021/11/20 04:21:28;;;;;;;;;1.00;1.00;;;;;15.77;56.03;98867.78;4908634;28;102516;-70
2021/11/20 04:23:55;;;;;;;;;0.00;0.00;;;;;15.77;56.01;98866.94;4915307;28;104135;-70
2021/11/20 04:26:23;;;;;;;;;2.50;1.75;;;;;15.76;55.78;98865.28;4884538;28;102109;-70
2021/11/20 04:28:50;;;;;;;;;2.00;2.00;;;;;15.75;56.17;98866.34;4894003;28;102353;-70
2021/11/20 04:31:19;;;;;;;;;0.00;0.00;;;;;15.75;55.87;98875.38;4909510;28;102589;-70
2021/11/20 04:33:47;;;;;;;;;2.00;1.00;;;;;15.75;56.21;98880.81;4907481;28;104078;-70
2021/11/20 04:36:15;;;;;;;;;1.75;1.00;;;;;15.75;55.83;98875.38;4909068;28;102186;-70
2021/11/20 04:38:42;;;;;;;;;1.00;1.00;;;;;15.75;55.58;98872.63;4908658;28;102633;-70
2021/11/20 04:41:09;;;;;;;;;1.00;1.00;;;;;15.74;55.84;98876.41;4899593;28;102571;-69
2021/11/20 04:43:36;;;;;;;;;1.00;1.00;;;;;15.75;56.51;98874.53;4904856;28;104066;-70
2021/11/20 04:46:05;;;;;;;;;1.00;1.00;;;;;15.74;56.04;98879.13;4886539;28;102577;-70
2021/11/20 04:48:32;;;;;;;;;1.00;1.00;;;;;15.75;55.82;98877.25;4904390;28;105717;-70
2021/11/20 04:50:59;;;;;;;;;0.25;0.25;;;;;15.75;55.60;98872.63;4904824;28;102478;-70
2021/11/20 04:53:27;;;;;;;;;1.67;1.00;;;;;15.75;56.16;98889.00;4895154;28;104323;-70
2021/11/20 04:55:57;;;;;;;;;0.67;0.67;;;;;15.73;55.82;98874.75;4883530;28;102591;-70
2021/11/20 04:58:25;;;;;;;;;1.00;1.00;;;;;15.74;55.91;98878.31;4889162;28;104681;-69
2021/11/20 05:00:53;;;;;;;;;1.00;1.00;;;;;15.73;55.55;98888.38;4910551;28;103944;-70
2021/11/20 05:03:20;;;;;;;;;1.00;1.00;;;;;15.72;55.66;98867.63;4896239;28;110541;-70
2021/11/20 05:05:48;;;;;;;;;1.25;1.00;;;;;15.73;55.58;98879.34;4890730;28;102629;-70
2021/11/20 05:08:15;;;;;;;;;0.50;0.25;;;;;15.71;56.00;98879.59;4893392;28;102616;-70
2021/11/20 05:10:42;;;;;;;;;1.25;1.25;;;;;15.71;56.13;98868.69;4907632;28;102487;-70
2021/11/20 05:13:09;;;;;;;;;1.00;1.00;;;;;15.72;56.05;98873.06;4872372;28;104154;-69
2021/11/20 05:15:38;;;;;;;;;1.00;1.00;;;;;15.71;56.22;98886.94;4893753;28;102550;-69
2021/11/20 05:18:07;;;;;;;;;0.00;0.00;;;;;15.70;56.02;98877.09;4887309;28;104191;-70
2021/11/20 05:20:34;;;;;;;;;1.00;1.00;;;;;15.69;55.82;98870.81;4888184;28;102172;-69
2021/11/20 05:23:01;;;;;;;;;2.00;0.50;;;;;15.70;56.48;98858.00;4902906;28;104047;-69
2021/11/20 05:25:28;;;;;;;;;1.67;1.00;;;;;15.70;55.75;98871.66;4889835;28;102416;-70
2021/11/20 05:27:55;;;;;;;;;1.00;1.00;;;;;15.70;55.87;98877.94;4882410;28;102444;-70
2021/11/20 05:30:30;;;;;;;;;1.00;1.00;;;;;15.71;55.60;98867.88;4890404;28;104325;-70
2021/11/20 05:32:58;;;;;;;;;1.00;0.33;;;;;15.70;55.86;98872.47;4888911;28;104074;-70
2021/11/20 05:35:25;;;;;;;;;1.00;0.00;;;;;15.71;55.46;98870.59;4894614;28;104340;-70
2021/11/20 05:37:52;;;;;;;;;1.00;1.00;;;;;15.68;55.86;98874.59;4878802;28;104333;-70
2021/11/20 05:40:19;;;;;;;;;0.33;0.33;;;;;15.68;55.74;98871.84;4907772;28;103874;-70
2021/11/20 05:42:57;;;;;;;;;0.00;0.00;;;;;15.69;55.55;98876.25;4905049;28;104939;-69
2021/11/20 05:45:27;;;;;;;;;1.00;1.00;;;;;15.68;55.57;98874.59;4903203;28;102625;-70
2021/11/20 05:47:54;;;;;;;;;1.00;1.00;;;;;15.68;55.82;98892.84;4895001;28;103159;-70
2021/11/20 05:50:23;;;;;;;;;2.00;1.00;;;;;15.67;55.41;98883.81;4906032;28;102695;-69
2021/11/20 05:52:50;;;;;;;;;1.00;1.00;;;;;15.67;55.97;98894.72;4905296;28;105279;-70
2021/11/20 05:55:17;;;;;;;;;1.00;1.00;;;;;15.67;56.17;98896.66;4910810;28;103284;-70
2021/11/20 05:57:44;;;;;;;;;0.00;0.00;;;;;15.68;55.51;98906.47;4906142;28;102971;-70
2021/11/20 06:00:14;;;;;;;;;1.00;1.00;;;;;15.66;55.69;98906.72;4910547;28;103235;-70
2021/11/20 06:02:41;;;;;;;;;1.00;1.00;;;;;15.66;55.81;98914.88;4909840;28;104533;-70
2021/11/20 06:05:08;;;;;;;;;0.00;0.00;;;;;15.65;56.08;98926.84;4905626;28;102840;-69
2021/11/20 06:07:35;;;;;;;;;1.00;1.00;;;;;15.65;55.99;98924.13;4901408;28;102481;-70
2021/11/20 06:10:04;;;;;;;;;0.67;0.33;;;;;15.65;56.09;98926.84;4899797;28;102629;-68
2021/11/20 06:12:31;;;;;;;;;1.00;1.00;;;;;15.66;55.57;98919.50;4899612;28;104335;-70
2021/11/20 06:14:58;;;;;;;;;1.00;1.00;;;;;15.67;55.69;98927.44;4895604;28;102791;-70
2021/11/20 06:17:24;;;;;;;;;1.25;1.00;;;;;15.66;56.36;98941.31;4880701;28;102823;-70
2021/11/20 06:19:51;;;;;;;;;1.50;1.00;;;;;15.67;55.59;98937.53;4905626;28;102520;-70
2021/11/20 06:22:20;;;;;;;;;1.00;1.00;;;;;15.67;55.77;98929.34;4883320;28;104266;-70
2021/11/20 06:24:47;;;;;;;;;1.00;0.50;;;;;15.66;55.97;98920.34;4893909;28;102530;-70
2021/11/20 06:27:18;;;;;;;;;0.50;0.50;;;;;15.67;55.70;98932.88;4880392;28;102334;-70
2021/11/20 06:29:46;;;;;;;;;0.00;0.00;;;;;15.61;55.92;98921.03;4907823;28;102463;-70
2021/11/20 06:32:12;;;;;;;;;1.00;1.00;;;;;15.68;56.00;98939.19;4874125;28;104351;-69
2021/11/20 06:34:39;;;;;;;;;1.50;1.00;;;;;15.67;56.25;98927.44;4912194;28;103565;-70
2021/11/20 06:37:06;;;;;;;;;1.00;1.00;;;;;15.67;56.19;98924.72;4884166;28;103193;-69
2021/11/20 06:39:35;;;;;;;;;1.00;1.00;;;;;15.68;55.50;98940.00;4897914;28;106016;-70
2021/11/20 06:42:04;;;;;;;;;1.75;1.00;;;;;15.69;55.71;98930.78;4888807;28;108853;-70
2021/11/20 06:44:34;;;;;;;;;1.00;1.00;;;;;15.69;56.36;98930.78;4851741;28;102283;-70
2021/11/20 06:47:02;;;;;;;;;1.75;1.00;;;;;15.71;55.96;98944.19;4870588;28;103430;-70
2021/11/20 06:49:29;;;;;;;;;1.00;1.00;;;;;15.69;56.26;98941.69;4893340;28;103972;-70
2021/11/20 06:55:49;;;;;;;;;1.00;1.00;;;;;15.71;56.29;98953.22;4898498;28;102402;-69
2021/11/20 07:00:51;;;;;;;;;1.00;1.00;;;;;15.72;56.13;98951.28;4910544;28;102147;-69
2021/11/20 07:03:29;;;;;;;;;1.00;1.00;;;;;15.72;55.90;98956.75;4901823;28;104058;-70
2021/11/20 07:06:01;;;;;;;;;0.33;0.00;;;;;15.71;55.86;98950.50;4899811;28;102948;-70
2021/11/20 07:08:28;;;;;;;;;1.00;1.00;;;;;15.72;55.61;98957.59;4905060;28;102503;-70
2021/11/20 07:10:56;;;;;;;;;1.00;1.00;;;;;15.73;55.90;98955.69;4909041;28;103615;-70
2021/11/20 07:13:23;;;;;;;;;1.00;1.00;;;;;15.72;55.50;98959.47;4905528;28;105913;-69
2021/11/20 07:15:50;;;;;;;;;3.00;1.75;;;;;15.73;55.54;98969.31;4907667;28;102389;-70
2021/11/20 07:18:18;;;;;;;;;1.00;0.00;;;;;15.72;55.89;98964.94;4908831;28;102651;-69
2021/11/20 07:20:45;;;;;;;;;1.00;1.00;;;;;15.73;55.84;98975.63;4898793;28;103845;-70
2021/11/20 07:23:12;;;;;;;;;1.00;0.00;;;;;15.72;55.97;98975.84;4895430;28;103668;-70
2021/11/20 07:25:40;;;;;;;;;1.00;1.00;;;;;15.73;55.06;98986.53;4897661;28;102438;-69
2021/11/20 07:28:07;;;;;;;;;0.67;0.67;;;;;15.73;55.65;98970.16;4906526;28;103584;-69
2021/11/20 07:30:35;;;;;;;;;0.00;0.00;;;;;15.73;56.01;98975.63;4908401;28;102616;-70
2021/11/20 07:33:03;;;;;;;;;1.75;0.50;;;;;15.72;55.39;98973.09;4842000;28;104141;-69
2021/11/20 07:35:37;;;;;;;;;0.00;0.00;;;;;15.74;55.34;98982.75;4897058;28;102755;-69
2021/11/20 07:38:05;;;;;;;;;0.75;0.75;;;;;15.74;55.92;98976.47;4898185;28;102131;-69
2021/11/20 07:40:33;;;;;;;;;2.00;1.33;;;;;15.73;55.37;98975.63;4909550;28;102547;-70
2021/11/20 07:43:00;;;;;;;;;1.00;1.00;;;;;15.75;55.27;98972.69;4891719;28;103757;-70
2021/11/20 07:45:27;;;;;;;;;1.00;1.00;;;;;15.73;55.65;98974.78;4894964;28;102649;-70
2021/11/20 07:47:54;;;;;;;;;0.75;0.75;;;;;15.73;55.66;98980.22;4896332;28;102174;-70
2021/11/20 07:50:21;;;;;;;;;0.00;0.00;;;;;15.73;55.70;98988.41;4905828;28;102552;-70
2021/11/20 07:52:48;;;;;;;;;1.00;1.00;;;;;15.73;55.51;98983.81;4890578;28;104184;-70
2021/11/20 07:55:15;;;;;;;;;1.00;0.00;;;;;15.72;55.12;98973.94;4904716;28;102503;-70
2021/11/20 07:57:42;;;;;;;;;1.00;1.00;;;;;15.71;55.59;98976.91;4906792;28;102433;-69
2021/11/20 08:00:15;;;;;;;;;1.00;1.00;;;;;15.71;55.52;98983.22;4879988;28;102708;-70
2021/11/20 08:02:41;;;;;;;;;1.00;1.00;;;;;15.72;55.61;98978.56;4891919;28;108889;-70
2021/11/20 08:05:09;;;;;;;;;1.00;1.00;;;;;15.71;55.27;98974.19;4885600;28;102444;-70
2021/11/20 08:07:36;;;;;;;;;1.67;1.00;;;;;15.72;55.48;98986.75;4886720;28;110814;-70
2021/11/20 08:10:05;;;;;;;;;1.00;1.00;;;;;15.71;55.34;98985.94;4906772;28;102526;-70
2021/11/20 08:12:32;;;;;;;;;1.00;0.67;;;;;15.71;55.44;98979.66;4903426;28;105495;-69
2021/11/20 08:14:59;;;;;;;;;0.50;0.50;;;;;15.71;55.23;98977.75;4901822;28;102290;-70
2021/11/20 08:17:27;;;;;;;;;1.00;1.00;;;;;15.70;55.39;98984.25;4905686;28;102498;-70
2021/11/20 08:19:53;;;;;;;;;1.25;1.00;;;;;15.71;55.48;98976.91;4887689;28;110132;-69
2021/11/20 08:22:20;;;;;;;;;1.00;1.00;;;;;15.70;55.20;98973.34;4881611;28;104052;-70
2021/11/20 08:24:47;;;;;;;;;1.00;1.00;;;;;15.70;55.74;98973.34;4863192;28;104412;-70
2021/11/20 08:27:14;;;;;;;;;0.00;0.00;;;;;15.70;55.65;98978.81;4779007;28;104615;-70
2021/11/20 08:29:41;;;;;;;;;2.00;1.00;;;;;15.70;55.26;98983.41;4900800;28;102164;-70
2021/11/20 08:32:09;;;;;;;;;0.00;0.00;;;;;15.68;54.71;98978.19;4907904;28;104085;-70
2021/11/20 08:34:37;;;;;;;;;1.00;1.00;;;;;15.69;55.07;98985.31;4898956;28;102369;-70
2021/11/20 08:37:05;;;;;;;;;1.00;0.00;;;;;15.69;55.29;98976.28;4893993;28;104259;-70
2021/11/20 08:39:32;;;;;;;;;1.00;1.00;;;;;15.69;56.03;98974.41;4875886;28;104353;-70
2021/11/20 08:41:59;;;;;;;;;1.00;0.25;;;;;15.68;55.71;98975.47;4901054;28;104072;-70
2021/11/20 08:44:26;;;;;;;;;0.00;0.00;;;;;15.68;55.88;98975.47;4884904;28;104005;-70
2021/11/20 08:46:53;;;;;;;;;0.00;0.00;;;;;15.69;55.53;98982.59;4887306;28;102549;-70
2021/11/20 08:49:21;;;;;;;;;0.67;0.00;;;;;15.68;55.55;98989.09;4899331;28;102700;-70
2021/11/20 08:51:48;;;;;;;;;1.75;1.00;;;;;15.70;55.47;98988.88;4893284;28;104082;-70
2021/11/20 08:54:15;;;;;;;;;0.50;0.50;;;;;15.68;55.91;98980.06;4903667;28;102728;-69
2021/11/20 08:56:43;;;;;;;;;1.00;1.00;;;;;15.69;55.48;98988.03;4914751;28;102731;-70
2021/11/20 08:59:12;;;;;;;;;1.00;1.00;;;;;15.69;55.27;98982.59;4896256;28;102686;-70
2021/11/20 09:01:51;;;;;;;;;1.00;1.00;;;;;15.71;55.62;98985.94;4886823;28;104130;-70
2021/11/20 09:04:21;;;;;;;;;2.00;2.00;;;;;15.71;56.08;98983.22;4908026;28;103921;-70
2021/11/20 09:06:56;;;;;;;;;0.25;0.00;;;;;15.72;55.65;98986.75;4896032;28;102596;-70
2021/11/20 09:09:39;;;;;;;;;1.00;1.00;;;;;15.73;55.98;98983.81;4901312;28;102166;-70
2021/11/20 09:12:36;;;;;;;;;1.00;1.00;;;;;15.74;55.41;98982.75;4863636;28;109047;-69
2021/11/20 09:15:10;;;;;;;;;1.75;1.00;;;;;15.74;55.46;98985.47;4875924;28;102298;-70
2021/11/20 09:17:37;;;;;;;;;1.00;1.00;;;;;15.75;55.36;98987.16;4899874;28;102313;-70
2021/11/20 09:20:05;;;;;;;;;1.00;1.00;;;;;15.77;56.01;98989.63;4909935;28;102650;-70
2021/11/20 09:22:32;;;;;;;;;1.25;0.25;;;;;15.76;56.18;98999.69;4901473;28;104085;-69
2021/11/20 09:24:59;;;;;;;;;1.75;1.00;;;;;15.76;55.58;98991.53;4829468;28;102980;-70
2021/11/20 09:27:47;;;;;;;;;1.00;1.00;;;;;15.78;56.24;98988.56;4711793;28;102381;-70
2021/11/20 09:30:35;;;;;;;;;1.50;1.50;;;;;15.77;55.62;98990.47;4812163;28;104343;-70
2021/11/20 09:33:02;;;;;;;;;0.25;0.25;;;;;15.77;55.96;98974.09;4896180;28;109009;-70
2021/11/20 09:35:29;;;;;;;;;0.00;0.00;;;;;15.78;55.60;98983.13;4899235;28;102342;-70
2021/11/20 09:37:56;;;;;;;;;1.00;1.00;;;;;15.79;55.33;98987.53;4908314;28;103166;-70
2021/11/20 09:40:24;;;;;;;;;1.00;0.00;;;;;15.78;55.73;98985.84;4920787;28;102474;-70
2021/11/20 09:42:53;;;;;;;;;0.00;0.00;;;;;15.79;55.48;98982.06;4887805;28;108433;-70
2021/11/20 09:45:22;;;;;;;;;1.00;1.00;;;;;15.78;55.65;98983.97;4901886;28;104178;-70
2021/11/20 09:47:58;;;;;;;;;1.50;1.00;;;;;15.80;55.76;98987.31;4901857;28;104218;-70
2021/11/20 09:50:29;;;;;;;;;1.00;1.00;;;;;15.80;55.78;98990.03;4899713;28;104420;-70
2021/11/20 09:52:56;;;;;;;;;1.00;1.00;;;;;15.79;55.92;98991.09;4900977;28;105367;-69
2021/11/20 09:55:33;;;;;;;;;1.00;1.00;;;;;15.80;55.22;98976.41;4901667;28;102726;-69
2021/11/20 09:58:11;;;;;;;;;2.00;1.75;;;;;15.80;55.66;98983.75;4912690;28;102487;-70
2021/11/20 10:00:50;;;;;;;;;1.00;1.00;;;;;15.79;55.62;98963.81;4898467;28;102481;-70
2021/11/20 10:03:49;;;;;;;;;1.00;0.25;;;;;15.80;55.28;98970.94;4880646;28;109881;-69
2021/11/20 10:06:36;;;;;;;;;1.25;1.00;;;;;15.80;55.68;98964.66;4904291;28;102765;-70
2021/11/20 10:09:20;;;;;;;;;1.50;1.00;;;;;15.80;55.87;98970.94;4907373;28;102523;-69
2021/11/20 10:12:11;;;;;;;;;1.75;0.00;;;;;15.80;55.11;98964.66;4881221;28;103507;-69
2021/11/20 10:14:54;;;;;;;;;2.00;1.50;;;;;15.81;55.57;98966.31;4906450;28;109060;-70
2021/11/20 10:17:38;;;;;;;;;1.00;1.00;;;;;15.80;55.27;98968.22;4905499;28;102460;-70
2021/11/20 10:20:40;;;;;;;;;1.75;1.75;;;;;15.80;55.27;98957.31;4908790;28;102586;-70
2021/11/20 10:23:10;;;;;;;;;1.00;1.00;;;;;15.80;55.20;98961.94;4862734;28;104522;-70
2021/11/20 10:25:38;;;;;;;;;0.00;0.00;;;;;15.80;55.09;98956.47;4899808;28;103854;-70
2021/11/20 10:28:26;;;;;;;;;1.25;1.00;;;;;15.80;55.57;98959.22;4916009;28;102555;-71
2021/11/20 10:31:20;;;;;;;;;1.00;1.00;;;;;15.80;55.46;98957.31;4894601;28;102453;-70
2021/11/20 10:33:54;;;;;;;;;1.00;1.00;;;;;15.79;54.92;98947.47;4879630;28;107052;-70
2021/11/20 10:36:32;;;;;;;;;0.00;0.00;;;;;15.78;55.07;98943.06;4876923;28;109075;-69
2021/11/20 10:39:05;;;;;;;;;1.00;1.00;;;;;15.74;55.10;98927.38;4886353;28;102590;-70
2021/11/20 10:41:43;;;;;;;;;1.00;1.00;;;;;15.78;55.63;98937.59;4886236;28;102373;-70
2021/11/20 10:44:37;;;;;;;;;1.00;1.00;;;;;15.79;55.46;98933.00;4898488;28;102448;-70
2021/11/20 10:47:10;;;;;;;;;1.00;1.00;;;;;15.78;55.38;98923.13;4885385;28;108256;-70
2021/11/20 10:50:01;;;;;;;;;1.75;1.00;;;;;15.79;55.04;98935.72;4895061;28;102386;-70
2021/11/20 10:53:08;;;;;;;;;1.00;1.00;;;;;15.77;54.92;98925.03;4891666;28;102548;-69
2021/11/20 10:55:57;;;;;;;;;1.75;1.00;;;;;15.79;55.17;98919.34;4880392;28;102237;-70
2021/11/20 10:59:01;;;;;;;;;1.00;1.00;;;;;15.78;54.93;98923.97;4891190;28;108884;-70
2021/11/20 11:01:42;;;;;;;;;1.00;1.00;;;;;15.79;55.14;98925.66;4885678;28;102320;-69
2021/11/20 11:04:28;;;;;;;;;1.00;1.00;;;;;15.77;55.05;98908.66;4898188;28;102417;-70
2021/11/20 11:07:05;;;;;;;;;2.00;1.00;;;;;15.77;55.01;98913.28;4904165;28;103828;-69
2021/11/20 11:09:41;;;;;;;;;0.00;0.00;;;;;15.77;55.32;98914.13;4878208;28;104096;-70
2021/11/20 11:12:08;;;;;;;;;0.75;0.75;;;;;15.77;55.37;98907.84;4899473;28;102329;-70
2021/11/20 11:15:03;;;;;;;;;1.00;1.00;;;;;15.78;55.07;98917.69;4887349;28;102367;-69
2021/11/20 11:17:51;;;;;;;;;1.25;1.00;;;;;15.76;54.80;98911.66;4893398;28;102346;-69
2021/11/20 11:20:43;;;;;;;;;0.00;0.00;;;;;15.75;55.19;98913.53;4896671;28;108898;-70
2021/11/20 11:23:42;;;;;;;;;1.00;1.00;;;;;15.76;55.19;98912.44;4891518;28;102443;-70
2021/11/20 11:26:10;;;;;;;;;1.00;1.00;;;;;15.76;54.93;98908.91;4900492;28;105686;-69
2021/11/20 11:28:54;;;;;;;;;1.00;1.00;;;;;15.77;54.94;98913.28;4898070;28;103190;-69
2021/11/20 11:31:34;;;;;;;;;0.00;0.00;;;;;15.76;54.94;98908.91;4899661;28;109181;-70
2021/11/20 11:34:07;;;;;;;;;1.25;1.25;;;;;15.76;55.31;98914.38;4903895;28;102390;-69
2021/11/20 11:36:46;;;;;;;;;1.50;1.00;;;;;15.75;55.07;98908.09;4907341;28;102509;-69
2021/11/20 11:39:50;;;;;;;;;1.00;1.00;;;;;15.76;55.16;98917.91;4901400;28;102735;-69
2021/11/20 11:42:44;;;;;;;;;0.00;0.00;;;;;15.75;54.64;98910.81;4899431;28;108675;-69
2021/11/20 11:45:47;;;;;;;;;1.00;1.00;;;;;15.75;54.47;98905.34;4910618;28;102480;-69
2021/11/20 11:48:27;;;;;;;;;1.00;0.00;;;;;15.75;54.77;98902.63;4911309;28;102221;-70
2021/11/20 11:51:15;;;;;;;;;1.25;1.00;;;;;15.75;54.84;98897.19;4923408;28;105348;-69
2021/11/20 11:54:05;;;;;;;;;1.00;1.00;;;;;15.74;55.01;98892.78;4902153;28;104331;-69